Time;durP1;ratioP1;P1;durP2;ratioP2;P2;SDS_P1;SDS_P2;PMS_P1;PMS_P2;Temp;Humidity;BMP_temperature;BMP_pressure;BME280_temperature;BME280_humidity;BME280_pressure;Samples;Min_cycle;Max_cycle;Signal;HPM_P1;HPM_P2
2023/10/20 00:00:19;;;;;;;17.77;15.88;;;;;;;8.76;100.00;98533.38;7391837;19;20400;-73
2023/10/20 00:02:46;;;;;;;20.38;16.55;;;;;;;8.77;100.00;98529.69;7388514;19;20480;-73
2023/10/20 00:05:13;;;;;;;18.52;15.70;;;;;;;8.74;100.00;98535.44;7389691;19;20675;-73
2023/10/20 00:07:41;;;;;;;21.17;16.98;;;;;;;8.75;100.00;98548.41;7390175;19;20356;-73
2023/10/20 00:10:09;;;;;;;20.30;17.23;;;;;;;8.74;100.00;98559.22;7390117;19;20376;-73
2023/10/20 00:12:36;;;;;;;20.92;16.95;;;;;;;8.72;100.00;98548.03;7392300;19;20364;-73
2023/10/20 00:15:03;;;;;;;25.35;19.45;;;;;;;8.70;100.00;98544.81;7388729;19;20369;-73
2023/10/20 00:17:30;;;;;;;22.00;17.20;;;;;;;8.67;100.00;98546.06;7389904;19;20360;-73
2023/10/20 00:19:57;;;;;;;21.48;17.20;;;;;;;8.66;100.00;98560.28;7388604;19;20378;-73
2023/10/20 00:22:24;;;;;;;22.27;17.25;;;;;;;8.65;100.00;98552.56;7390231;19;20434;-73
2023/10/20 00:24:51;;;;;;;22.58;17.80;;;;;;;8.64;100.00;98535.91;7392702;19;20368;-73
2023/10/20 00:27:17;;;;;;;22.80;17.90;;;;;;;8.65;100.00;98544.63;7393094;19;20393;-73
2023/10/20 00:29:44;;;;;;;23.20;18.15;;;;;;;8.65;100.00;98539.34;7389771;19;20388;-73
2023/10/20 00:32:11;;;;;;;22.88;17.95;;;;;;;8.68;100.00;98541.56;7393203;19;20428;-73
2023/10/20 00:34:38;;;;;;;22.03;18.27;;;;;;;8.66;100.00;98539.13;7389990;19;20352;-73
2023/10/20 00:37:05;;;;;;;23.48;18.02;;;;;;;8.68;100.00;98544.22;7392692;19;20343;-73
2023/10/20 00:39:34;;;;;;;21.95;18.65;;;;;;;8.65;100.00;98532.25;7389508;19;20363;-73
2023/10/20 00:42:01;;;;;;;23.58;18.13;;;;;;;8.63;100.00;98528.16;7389077;19;20368;-72
2023/10/20 00:44:29;;;;;;;22.45;17.40;;;;;;;8.64;100.00;98527.97;7391297;19;20367;-73
2023/10/20 00:46:56;;;;;;;23.63;17.73;;;;;;;8.66;100.00;98535.69;7389476;19;20394;-73
2023/10/20 00:49:23;;;;;;;23.48;17.85;;;;;;;8.67;100.00;98530.19;7389417;19;20396;-73
2023/10/20 00:51:50;;;;;;;21.58;16.65;;;;;;;8.65;100.00;98521.66;7388033;19;20452;-73
2023/10/20 00:54:17;;;;;;;21.27;16.83;;;;;;;8.64;100.00;98516.59;7391415;19;20424;-73
2023/10/20 00:56:45;;;;;;;22.80;16.98;;;;;;;8.64;100.00;98513.94;7390366;19;20364;-73
2023/10/20 00:59:12;;;;;;;21.38;16.65;;;;;;;8.64;100.00;98524.53;7390637;19;20360;-73
2023/10/20 01:01:39;;;;;;;23.00;17.58;;;;;;;8.64;100.00;98519.22;7387046;19;20376;-73
2023/10/20 01:04:06;;;;;;;24.13;17.40;;;;;;;8.66;100.00;98518.00;7391655;19;20356;-73
2023/10/20 01:06:36;;;;;;;21.70;16.40;;;;;;;8.66;100.00;98518.00;7389702;19;21720;-73
2023/10/20 01:09:03;;;;;;;22.77;17.27;;;;;;;8.68;100.00;98504.56;7388148;19;20380;-72
2023/10/20 01:11:30;;;;;;;22.55;16.70;;;;;;;8.67;100.00;98505.56;7388513;19;20354;-73
2023/10/20 01:13:57;;;;;;;22.90;16.83;;;;;;;8.65;100.00;98515.56;7389196;19;20341;-72
2023/10/20 01:16:24;;;;;;;22.52;17.17;;;;;;;8.66;100.00;98511.91;7390316;19;20361;-73
2023/10/20 01:18:51;;;;;;;22.60;18.00;;;;;;;8.67;100.00;98502.94;7391545;19;20857;-73
2023/10/20 01:21:18;;;;;;;20.67;17.13;;;;;;;8.66;100.00;98507.41;7388877;19;20344;-73
2023/10/20 01:23:45;;;;;;;21.73;16.92;;;;;;;8.70;100.00;98502.50;7390557;19;20369;-73
2023/10/20 01:26:12;;;;;;;21.58;16.90;;;;;;;8.71;100.00;98504.13;7391344;19;20351;-73
2023/10/20 01:28:39;;;;;;;25.38;16.67;;;;;;;8.69;100.00;98506.16;7395108;19;20369;-72
2023/10/20 01:31:06;;;;;;;26.23;18.67;;;;;;;8.70;100.00;98502.50;7398525;19;21153;-72
2023/10/20 01:33:32;;;;;;;22.02;16.15;;;;;;;8.71;100.00;98498.84;7396171;19;20368;-72
2023/10/20 01:35:59;;;;;;;20.55;15.98;;;;;;;8.73;100.00;98496.78;7399657;19;20391;-73
2023/10/20 01:38:26;;;;;;;20.17;15.70;;;;;;;8.72;100.00;98489.88;7395896;19;20379;-72
2023/10/20 01:40:53;;;;;;;21.17;16.20;;;;;;;8.74;100.00;98493.13;7397011;19;20360;-73
2023/10/20 01:43:20;;;;;;;18.35;15.02;;;;;;;8.70;100.00;98484.00;7394933;19;20402;-72
2023/10/20 01:45:47;;;;;;;20.38;15.60;;;;;;;8.69;100.00;98475.28;7395557;19;20772;-73
2023/10/20 01:48:14;;;;;;;20.75;15.18;;;;;;;8.66;100.00;98459.03;7396289;19;20896;-73
2023/10/20 01:50:41;;;;;;;20.20;15.37;;;;;;;8.67;100.00;98461.47;7396018;19;20468;-73
2023/10/20 01:53:08;;;;;;;21.17;15.35;;;;;;;8.68;100.00;98463.06;7392697;19;20385;-73
2023/10/20 01:55:34;;;;;;;21.75;15.75;;;;;;;8.69;100.00;98471.81;7394884;19;20368;-73
2023/10/20 01:58:01;;;;;;;20.60;14.90;;;;;;;8.65;100.00;98483.84;7396376;19;20453;-73
2023/10/20 02:00:28;;;;;;;20.50;15.23;;;;;;;8.72;100.00;98471.38;7395271;19;20377;-73
2023/10/20 02:02:55;;;;;;;16.63;13.83;;;;;;;8.73;100.00;98454.50;7394530;19;20921;-73
2023/10/20 02:05:23;;;;;;;18.63;14.43;;;;;;;8.70;100.00;98428.50;7396091;19;20333;-73
2023/10/20 02:07:49;;;;;;;17.17;13.67;;;;;;;8.71;100.00;98422.19;7395164;19;20887;-72
2023/10/20 02:10:16;;;;;;;14.88;12.68;;;;;;;8.71;100.00;98414.25;7392940;19;20364;-73
2023/10/20 02:12:43;;;;;;;13.13;11.07;;;;;;;8.67;100.00;98403.31;7394313;19;20960;-73
2023/10/20 02:15:10;;;;;;;12.95;10.43;;;;;;;8.62;100.00;98395.22;7394303;19;20390;-73
2023/10/20 02:17:37;;;;;;;13.82;10.40;;;;;;;8.62;100.00;98395.22;7396367;19;20385;-72
2023/10/20 02:20:05;;;;;;;14.10;11.40;;;;;;;8.64;100.00;98379.16;7394404;19;20697;-72
2023/10/20 02:22:31;;;;;;;14.23;11.43;;;;;;;8.60;100.00;98376.13;7395422;19;20360;-73
2023/10/20 02:24:58;;;;;;;15.68;11.30;;;;;;;8.61;100.00;98384.88;7394109;19;20432;-73
2023/10/20 02:27:26;;;;;;;16.00;11.90;;;;;;;8.59;100.00;98373.75;7394816;19;20404;-73
2023/10/20 02:29:54;;;;;;;15.70;11.88;;;;;;;8.59;100.00;98377.19;7391672;19;20372;-72
2023/10/20 02:32:21;;;;;;;16.13;12.80;;;;;;;8.58;100.00;98380.84;7392535;19;20383;-73
2023/10/20 02:34:48;;;;;;;15.63;12.20;;;;;;;8.61;100.00;98398.06;7394334;19;20864;-73
2023/10/20 02:37:15;;;;;;;18.13;13.25;;;;;;;8.62;100.00;98405.00;7396205;19;20364;-72
2023/10/20 02:39:42;;;;;;;16.25;12.50;;;;;;;8.60;100.00;98388.56;7390923;19;20360;-73
2023/10/20 02:42:09;;;;;;;15.80;12.15;;;;;;;8.57;100.00;98398.53;7392604;19;20356;-73
2023/10/20 02:44:37;;;;;;;17.60;13.15;;;;;;;8.57;100.00;98403.00;7393107;19;20953;-73
2023/10/20 02:47:04;;;;;;;16.45;12.98;;;;;;;8.57;100.00;98393.25;7390115;19;20364;-73
2023/10/20 02:49:31;;;;;;;15.95;12.70;;;;;;;8.55;100.00;98395.28;7390980;19;20353;-73
2023/10/20 02:51:58;;;;;;;16.25;12.27;;;;;;;8.54;100.00;98392.88;7395906;19;20355;-72
2023/10/20 02:54:25;;;;;;;16.17;12.65;;;;;;;8.54;100.00;98396.34;7397324;19;20440;-72
2023/10/20 02:56:56;;;;;;;18.13;12.43;;;;;;;8.55;100.00;98395.28;7392242;19;22021;-72
2023/10/20 02:59:23;;;;;;;15.77;11.93;;;;;;;8.50;100.00;98381.94;7394367;19;20348;-72
2023/10/20 03:01:50;;;;;;;16.83;12.18;;;;;;;8.49;100.00;98372.38;7391756;19;20361;-73
2023/10/20 03:04:19;;;;;;;16.65;12.80;;;;;;;8.48;100.00;98373.44;7393679;19;20837;-73
2023/10/20 03:06:47;;;;;;;18.30;13.20;;;;;;;8.45;100.00;98375.69;7389767;19;20324;-73
2023/10/20 03:09:14;;;;;;;19.10;12.82;;;;;;;8.42;100.00;98363.72;7393347;19;20677;-73
2023/10/20 03:11:43;;;;;;;18.80;13.57;;;;;;;8.39;100.00;98369.41;7392838;19;20424;-73
2023/10/20 03:14:11;;;;;;;21.52;14.55;;;;;;;8.41;100.00;98364.75;7393295;19;20352;-73
2023/10/20 03:16:42;;;;;;;20.30;14.02;;;;;;;8.42;100.00;98358.44;7391404;19;20372;-73
2023/10/20 03:19:12;;;;;;;18.63;13.77;;;;;;;8.43;100.00;98338.91;7394639;19;20358;-73
2023/10/20 03:21:39;;;;;;;19.77;13.82;;;;;;;8.40;100.00;98347.25;7391753;19;20379;-73
2023/10/20 03:24:06;;;;;;;18.08;13.32;;;;;;;8.39;100.00;98350.91;7393579;19;20340;-72
2023/10/20 03:26:33;;;;;;;18.92;13.73;;;;;;;8.38;100.00;98363.31;7392605;19;20380;-73
2023/10/20 03:29:00;;;;;;;18.75;13.18;;;;;;;8.35;100.00;98360.28;7392825;19;20735;-73
2023/10/20 03:31:27;;;;;;;19.45;14.27;;;;;;;8.34;100.00;98356.84;7392580;19;20711;-73
2023/10/20 03:33:55;;;;;;;19.35;14.60;;;;;;;8.34;100.00;98356.03;7393194;19;20357;-73
2023/10/20 03:36:22;;;;;;;21.08;14.52;;;;;;;8.34;100.00;98350.75;7391608;19;20960;-73
2023/10/20 03:38:49;;;;;;;17.77;13.40;;;;;;;8.30;100.00;98344.28;7393791;19;20443;-73
2023/10/20 03:41:16;;;;;;;19.05;13.77;;;;;;;8.26;100.00;98337.84;7389817;19;20379;-73
2023/10/20 03:43:44;;;;;;;19.13;14.00;;;;;;;8.25;100.00;98341.50;7394109;19;20370;-73
2023/10/20 03:46:13;;;;;;;18.20;14.50;;;;;;;8.26;100.00;98337.84;7392284;19;20385;-72
2023/10/20 03:48:41;;;;;;;21.00;14.23;;;;;;;8.24;100.00;98339.88;7390438;19;20377;-73
2023/10/20 03:51:11;;;;;;;19.75;14.32;;;;;;;8.23;100.00;98325.88;7393040;19;20402;-73
2023/10/20 03:53:50;;;;;;;20.08;15.05;;;;;;;8.21;100.00;98330.56;7394984;19;20839;-73
2023/10/20 03:56:19;;;;;;;20.42;14.90;;;;;;;8.22;100.00;98323.44;7391925;19;20391;-73
2023/10/20 03:58:46;;;;;;;18.40;14.07;;;;;;;8.22;100.00;98316.31;7391159;19;20395;-73
2023/10/20 04:01:14;;;;;;;20.23;15.10;;;;;;;8.24;100.00;98324.84;7393357;19;20369;-73
2023/10/20 04:03:43;;;;;;;22.58;15.10;;;;;;;8.23;100.00;98317.97;7393306;19;20842;-73
2023/10/20 04:06:11;;;;;;;19.40;14.60;;;;;;;8.18;100.00;98309.84;7392596;19;20373;-73
2023/10/20 04:08:38;;;;;;;20.50;15.18;;;;;;;8.20;100.00;98296.44;7390303;19;20498;-73
2023/10/20 04:11:05;;;;;;;21.88;15.98;;;;;;;8.23;100.00;98301.31;7392842;19;20862;-73
2023/10/20 04:13:32;;;;;;;21.10;15.45;;;;;;;8.19;100.00;98290.38;7391429;19;20356;-73
2023/10/20 04:16:12;;;;;;;20.50;15.25;;;;;;;8.20;100.00;98309.66;7392889;19;20368;-73
2023/10/20 04:18:41;;;;;;;20.67;15.23;;;;;;;8.19;100.00;98314.13;7391050;19;20734;-73
2023/10/20 04:21:11;;;;;;;19.63;14.63;;;;;;;8.17;100.00;98313.53;7390204;19;20344;-73
2023/10/20 04:23:38;;;;;;;21.55;15.23;;;;;;;8.17;100.00;98298.50;7391920;19;20361;-73
2023/10/20 04:26:15;;;;;;;20.27;14.90;;;;;;;8.19;100.00;98281.63;7392616;19;20686;-73
2023/10/20 04:28:46;;;;;;;20.73;14.73;;;;;;;8.16;100.00;98275.78;7390712;19;21003;-73
2023/10/20 04:59:22;;;;;;;17.55;13.45;;;;;;;8.11;100.00;98217.50;7394796;19;20404;-73
2023/10/20 05:01:26;;;;;;;18.05;13.98;;;;;;;8.12;100.00;98213.06;7390494;19;20786;-73
2023/10/20 05:03:57;;;;;;;17.73;14.05;;;;;;;8.11;100.00;98225.44;7400252;19;20367;-73
2023/10/20 05:06:43;;;;;;;16.10;12.70;;;;;;;8.10;100.00;98215.91;7400807;19;20885;-73
2023/10/20 05:09:14;;;;;;;14.07;12.18;;;;;;;8.09;100.00;98224.03;7396891;19;20367;-73
2023/10/20 05:11:41;;;;;;;15.13;12.88;;;;;;;8.08;100.00;98225.88;7397851;19;20919;-73
2023/10/20 05:14:08;;;;;;;14.93;12.07;;;;;;;8.06;100.00;98212.09;7400784;19;20336;-73
2023/10/20 05:16:35;;;;;;;14.95;12.20;;;;;;;8.06;100.00;98214.72;7397975;19;20373;-73
2023/10/20 05:19:05;;;;;;;17.23;12.93;;;;;;;8.07;100.00;98218.97;7397217;19;20325;-73
2023/10/20 05:21:38;;;;;;;16.40;13.30;;;;;;;8.07;100.00;98226.09;7397886;19;20360;-73
2023/10/20 05:24:05;;;;;;;25.20;19.92;;;;;;;8.07;100.00;98213.69;7396287;19;20797;-73
2023/10/20 05:26:32;;;;;;;14.77;13.02;;;;;;;8.07;100.00;98211.06;7398540;19;20369;-74
2023/10/20 05:29:01;;;;;;;15.63;13.30;;;;;;;8.08;100.00;98215.31;7398435;19;20904;-73
2023/10/20 05:31:29;;;;;;;15.45;13.25;;;;;;;8.09;100.00;98198.44;7395982;19;20380;-73
2023/10/20 05:33:57;;;;;;;14.43;12.93;;;;;;;8.07;100.00;98182.00;7399245;19;20344;-73
2023/10/20 05:36:23;;;;;;;14.32;11.90;;;;;;;8.05;100.00;98167.41;7395356;19;20376;-73
2023/10/20 05:38:50;;;;;;;13.50;11.03;;;;;;;8.02;100.00;98179.22;7396254;19;20369;-73
2023/10/20 05:41:17;;;;;;;13.02;11.48;;;;;;;8.00;100.00;98176.00;7398646;19;20420;-73
2023/10/20 05:43:44;;;;;;;13.65;12.07;;;;;;;8.02;100.00;98203.00;7399246;19;20344;-73
2023/10/20 05:46:17;;;;;;;12.90;11.50;;;;;;;8.02;100.00;98181.88;7397861;19;20688;-73
2023/10/20 05:48:45;;;;;;;14.02;11.90;;;;;;;8.03;100.00;98183.47;7394223;19;20442;-73
2023/10/20 05:51:12;;;;;;;13.37;11.30;;;;;;;8.04;100.00;98181.66;7394622;19;20360;-73
2023/10/20 05:53:39;;;;;;;12.43;11.13;;;;;;;8.03;100.00;98187.94;7396701;19;20432;-74
2023/10/20 05:56:06;;;;;;;11.93;10.27;;;;;;;8.05;100.00;98194.63;7396203;19;20727;-73
2023/10/20 05:58:37;;;;;;;11.32;10.18;;;;;;;8.06;100.00;98198.09;7398443;19;20368;-73
2023/10/20 06:01:11;;;;;;;10.85;9.25;;;;;;;8.02;100.00;98186.34;7395676;19;20348;-73
2023/10/20 06:03:38;;;;;;;10.60;9.33;;;;;;;8.02;100.00;98181.88;7396228;19;20335;-73
2023/10/20 06:06:05;;;;;;;10.10;9.00;;;;;;;8.02;100.00;98197.72;7398529;19;20356;-74
2023/10/20 06:08:32;;;;;;;10.25;9.25;;;;;;;8.04;100.00;98177.19;7396883;19;20361;-73
2023/10/20 06:11:02;;;;;;;10.20;8.95;;;;;;;8.04;100.00;98171.91;7396064;19;20382;-73
2023/10/20 06:13:30;;;;;;;10.50;9.20;;;;;;;8.04;100.00;98156.06;7393481;19;20364;-73
2023/10/20 06:15:59;;;;;;;11.30;9.18;;;;;;;8.06;100.00;98163.75;7395032;19;20360;-73
2023/10/20 06:18:27;;;;;;;9.13;8.23;;;;;;;8.02;100.00;98158.09;7399480;19;20668;-73
2023/10/20 06:21:03;;;;;;;8.90;8.00;;;;;;;8.02;100.00;98158.09;7397389;19;20340;-73
2023/10/20 06:23:31;;;;;;;8.68;7.78;;;;;;;8.02;100.00;98146.75;7392739;19;20352;-73
2023/10/20 06:25:59;;;;;;;9.32;8.07;;;;;;;8.03;100.00;98138.59;7397718;19;20345;-73
2023/10/20 06:28:26;;;;;;;9.48;7.57;;;;;;;8.06;100.00;98132.09;7396375;19;20895;-73
2023/10/20 06:30:54;;;;;;;9.13;7.60;;;;;;;8.07;100.00;98138.97;7392536;19;20405;-73
2023/10/20 06:33:22;;;;;;;8.30;7.50;;;;;;;8.07;100.00;98155.59;7397529;19;20365;-73
2023/10/20 06:35:52;;;;;;;7.90;7.10;;;;;;;8.08;100.00;98141.38;7397460;19;21010;-73
2023/10/20 06:38:30;;;;;;;8.23;6.82;;;;;;;8.08;100.00;98114.97;7396471;19;20875;-73
2023/10/20 06:40:57;;;;;;;8.68;7.50;;;;;;;8.10;100.00;98115.56;7396548;19;20372;-73
2023/10/20 06:43:24;;;;;;;8.35;7.38;;;;;;;8.11;100.00;98111.09;7395592;19;20353;-73
2023/10/20 06:46:01;;;;;;;8.27;7.35;;;;;;;8.11;100.00;98103.97;7394456;19;20349;-73
2023/10/20 06:48:28;;;;;;;7.95;7.15;;;;;;;8.15;100.00;98105.13;7395412;19;20387;-74
2023/10/20 06:50:56;;;;;;;8.43;6.82;;;;;;;8.15;100.00;98102.50;7392236;19;20401;-73
2023/10/20 06:53:23;;;;;;;8.68;7.78;;;;;;;8.14;100.00;98098.25;7397655;19;20371;-74
2023/10/20 06:55:51;;;;;;;7.05;6.35;;;;;;;8.17;100.00;98105.72;7395682;19;20703;-74
2023/10/20 06:58:38;;;;;;;7.28;6.57;;;;;;;8.20;100.00;98095.75;7397890;19;21085;-74
2023/10/20 07:01:05;;;;;;;7.35;6.60;;;;;;;8.19;100.00;98100.22;7398106;19;20365;-74
2023/10/20 07:03:33;;;;;;;6.95;6.25;;;;;;;8.22;100.00;98101.59;7396614;19;20848;-74
2023/10/20 07:06:00;;;;;;;8.20;7.40;;;;;;;8.25;100.00;98093.25;7396066;19;20854;-74
2023/10/20 07:08:27;;;;;;;6.80;6.10;;;;;;;8.27;100.00;98092.00;7394193;19;20960;-74
2023/10/20 07:10:54;;;;;;;6.78;5.78;;;;;;;8.28;100.00;98090.16;7391975;19;20356;-74
2023/10/20 07:13:21;;;;;;;7.13;5.70;;;;;;;8.28;100.00;98076.94;7395562;19;20681;-74
2023/10/20 07:15:52;;;;;;;6.25;5.60;;;;;;;8.28;100.00;98082.22;7396150;19;20381;-75
2023/10/20 07:18:19;;;;;;;6.50;5.05;;;;;;;8.28;100.00;98085.66;7396251;19;20438;-75
2023/10/20 07:20:46;;;;;;;6.93;5.78;;;;;;;8.30;100.00;98090.72;7397486;19;20364;-75
2023/10/20 07:23:13;;;;;;;9.70;7.35;;;;;;;8.31;100.00;98087.88;7396409;19;20422;-74
2023/10/20 07:25:40;;;;;;;4.93;4.43;;;;;;;8.32;100.00;98088.69;7394127;19;20368;-74
2023/10/20 07:28:07;;;;;;;5.93;4.15;;;;;;;8.30;100.00;98082.81;7397020;19;20337;-74
2023/10/20 07:30:34;;;;;;;8.18;7.20;;;;;;;8.31;100.00;98079.16;7394592;19;20377;-74
2023/10/20 07:33:03;;;;;;;4.70;4.00;;;;;;;8.31;100.00;98072.03;7393841;19;20381;-74
2023/10/20 07:35:30;;;;;;;4.95;4.18;;;;;;;8.32;100.00;98070.19;7394365;19;20378;-75
2023/10/20 07:37:57;;;;;;;15.43;13.83;;;;;;;8.33;100.00;98074.41;7391993;19;20381;-74
2023/10/20 07:40:26;;;;;;;7.50;5.47;;;;;;;8.33;100.00;98069.13;7391349;19;20333;-74
2023/10/20 07:42:53;;;;;;;4.30;3.37;;;;;;;8.33;100.00;98063.84;7394988;19;20414;-74
2023/10/20 07:45:20;;;;;;;3.63;2.88;;;;;;;8.35;100.00;98059.16;7393141;19;20694;-74
2023/10/20 07:47:47;;;;;;;4.70;3.00;;;;;;;8.37;100.00;98054.44;7393531;19;20435;-74
2023/10/20 07:50:14;;;;;;;3.40;2.65;;;;;;;8.36;100.00;98055.50;7393722;19;20345;-74
2023/10/20 07:52:41;;;;;;;3.42;2.60;;;;;;;8.38;100.00;98058.72;7392347;19;20706;-74
2023/10/20 07:55:08;;;;;;;3.42;2.40;;;;;;;8.37;100.00;98041.25;7389647;19;20372;-74
2023/10/20 07:57:35;;;;;;;3.60;2.58;;;;;;;8.36;100.00;98037.00;7394984;19;20410;-74
2023/10/20 08:00:03;;;;;;;3.25;2.47;;;;;;;8.34;100.00;98039.06;7394005;19;20366;-74
2023/10/20 08:02:37;;;;;;;3.83;2.60;;;;;;;8.34;100.00;98044.34;7391828;19;20898;-74
2023/10/20 08:05:05;;;;;;;3.95;2.30;;;;;;;8.35;100.00;98045.94;7396790;19;20364;-74
2023/10/20 08:07:32;;;;;;;3.28;2.05;;;;;;;8.30;100.00;98038.72;7399109;19;20744;-75
2023/10/20 08:10:00;;;;;;;3.60;2.15;;;;;;;8.29;100.00;98045.03;7392948;19;20416;-74
2023/10/20 08:12:26;;;;;;;3.30;2.27;;;;;;;8.32;100.00;98033.22;7390127;19;20353;-74
2023/10/20 08:14:53;;;;;;;2.90;2.22;;;;;;;8.32;100.00;98026.09;7387297;19;20367;-74
2023/10/20 08:17:20;;;;;;;3.70;2.30;;;;;;;8.34;100.00;98029.31;7391849;19;20420;-74
2023/10/20 08:19:47;;;;;;;2.55;2.10;;;;;;;8.35;100.00;98024.81;7390841;19;20360;-74
2023/10/20 08:22:14;;;;;;;2.60;2.10;;;;;;;8.34;100.00;98023.22;7386804;19;20908;-74
2023/10/20 08:24:40;;;;;;;2.90;2.20;;;;;;;8.35;100.00;98024.81;7392220;19;20366;-74
2023/10/20 08:27:07;;;;;;;4.95;3.92;;;;;;;8.36;100.00;98021.16;7391155;19;20364;-74
2023/10/20 08:29:34;;;;;;;2.70;1.92;;;;;;;8.37;100.00;98009.56;7394587;19;20364;-74
2023/10/20 08:32:02;;;;;;;2.97;1.80;;;;;;;8.39;100.00;97999.56;7392006;19;20360;-74
2023/10/20 08:34:32;;;;;;;3.42;1.80;;;;;;;8.37;100.00;98006.91;7389990;19;20687;-74
2023/10/20 08:36:59;;;;;;;2.13;1.40;;;;;;;8.34;100.00;97997.59;7393140;19;20401;-74
2023/10/20 08:39:27;;;;;;;2.78;1.60;;;;;;;8.34;100.00;97996.81;7401625;19;20377;-74
2023/10/20 08:41:54;;;;;;;3.15;1.60;;;;;;;8.34;100.00;98013.47;7399182;19;20342;-74
2023/10/20 08:44:22;;;;;;;2.70;1.60;;;;;;;8.34;100.00;98002.88;7400530;19;20388;-74
2023/10/20 08:46:51;;;;;;;2.30;1.42;;;;;;;8.32;100.00;97994.38;7398858;19;20360;-74
2023/10/20 08:49:20;;;;;;;2.90;1.60;;;;;;;8.32;100.00;97999.66;7399212;19;20352;-74
2023/10/20 08:51:47;;;;;;;2.38;1.50;;;;;;;8.30;100.00;97993.81;7397512;19;20662;-74
2023/10/20 08:54:15;;;;;;;2.60;1.40;;;;;;;8.28;100.00;98000.34;7398976;19;20358;-74
2023/10/20 08:56:42;;;;;;;2.47;1.40;;;;;;;8.25;100.00;98000.81;7398503;19;20856;-74
2023/10/20 08:59:09;;;;;;;2.50;1.65;;;;;;;8.32;100.00;97998.88;7395005;19;20868;-74
2023/10/20 09:01:36;;;;;;;2.15;1.50;;;;;;;8.30;100.00;97996.44;7391388;19;20352;-74
2023/10/20 09:04:04;;;;;;;2.00;1.30;;;;;;;8.31;100.00;98007.84;7397780;19;20333;-74
2023/10/20 09:06:31;;;;;;;2.88;1.70;;;;;;;8.35;100.00;98014.25;7399956;19;20376;-74
2023/10/20 09:08:59;;;;;;;1.95;1.40;;;;;;;8.29;100.00;98007.25;7401993;19;20352;-74
2023/10/20 09:11:30;;;;;;;2.20;1.40;;;;;;;8.30;100.00;98008.84;7395823;19;20419;-74
2023/10/20 09:13:59;;;;;;;2.40;1.40;;;;;;;8.28;100.00;98005.63;7396080;19;20348;-74
2023/10/20 09:16:26;;;;;;;1.97;1.20;;;;;;;8.23;100.00;98011.59;7397743;19;20366;-74
2023/10/20 09:18:54;;;;;;;2.10;1.25;;;;;;;8.27;100.00;98011.97;7399698;19;20366;-74
2023/10/20 09:21:27;;;;;;;2.70;1.38;;;;;;;8.29;100.00;98020.47;7395837;19;20372;-74
2023/10/20 09:23:59;;;;;;;2.22;1.40;;;;;;;8.28;100.00;98008.28;7398833;19;20787;-73
2023/10/20 09:26:30;;;;;;;2.13;1.23;;;;;;;8.28;100.00;98024.13;7397660;19;20369;-73
2023/10/20 09:28:57;;;;;;;1.80;1.10;;;;;;;8.25;100.00;98017.47;7397596;19;20480;-74
2023/10/20 09:31:26;;;;;;;1.80;1.10;;;;;;;8.22;100.00;98028.47;7395822;19;20374;-73
2023/10/20 09:33:54;;;;;;;1.75;1.10;;;;;;;8.23;100.00;98047.78;7399850;19;20858;-73
2023/10/20 09:36:24;;;;;;;2.28;1.27;;;;;;;8.24;100.00;98044.09;7397681;19;20364;-74
2023/10/20 09:38:53;;;;;;;1.80;1.20;;;;;;;8.25;100.00;98051.00;7399852;19;20751;-74
2023/10/20 09:41:24;;;;;;;1.95;1.25;;;;;;;8.25;100.00;98056.28;7398336;19;20349;-74
2023/10/20 09:44:02;;;;;;;2.25;1.27;;;;;;;8.23;100.00;98055.69;7400392;19;20888;-74
2023/10/20 09:46:54;;;;;;;1.73;1.08;;;;;;;8.23;100.00;98055.69;7395363;19;20360;-74
2023/10/20 09:49:26;;;;;;;2.30;1.15;;;;;;;8.18;100.00;98053.69;7396826;19;20442;-74
2023/10/20 09:51:55;;;;;;;2.50;1.23;;;;;;;8.17;100.00;98044.97;7398912;19;20366;-74
2023/10/20 09:54:30;;;;;;;2.40;1.30;;;;;;;8.19;100.00;98060.59;7395020;19;20423;-74
2023/10/20 09:56:57;;;;;;;2.10;1.10;;;;;;;8.15;100.00;98056.81;7400363;19;20365;-74
2023/10/20 09:59:27;;;;;;;2.73;1.20;;;;;;;8.19;100.00;98052.69;7400763;19;20417;-75
2023/10/20 10:01:56;;;;;;;2.17;1.35;;;;;;;8.20;100.00;98061.41;7397266;19;20880;-74
2023/10/20 10:04:28;;;;;;;2.20;1.30;;;;;;;8.17;100.00;98044.19;7397415;19;20365;-74
2023/10/20 10:06:59;;;;;;;2.80;1.23;;;;;;;8.21;100.00;98055.13;7398160;19;20365;-74
2023/10/20 10:09:43;;;;;;;2.22;1.20;;;;;;;8.19;100.00;98043.97;7394241;19;20979;-74
2023/10/20 10:12:14;;;;;;;2.00;1.20;;;;;;;8.13;100.00;98037.75;7393500;19;20398;-74
2023/10/20 10:14:41;;;;;;;1.80;1.10;;;;;;;8.13;100.00;98054.38;7394123;19;20738;-74
2023/10/20 10:17:11;;;;;;;2.42;1.40;;;;;;;8.14;100.00;98050.72;7397111;19;20869;-74
2023/10/20 10:19:50;;;;;;;7.80;2.00;;;;;;;8.24;100.00;98046.72;7399244;19;20770;-75
2023/10/20 10:22:26;;;;;;;8.80;2.50;;;;;;;8.73;100.00;98047.44;7399963;19;20453;-76
2023/10/20 10:25:00;;;;;;;3.25;1.27;;;;;;;9.05;100.00;98041.84;7400367;19;20390;-75
2023/10/20 10:27:29;;;;;;;2.33;1.25;;;;;;;9.25;100.00;98039.66;7399410;19;20362;-76
2023/10/20 10:30:00;;;;;;;1.98;1.10;;;;;;;9.54;98.43;98055.59;7395600;19;20395;-76
2023/10/20 10:32:32;;;;;;;2.40;1.30;;;;;;;9.76;98.08;98059.22;7395918;19;20431;-76
2023/10/20 10:35:01;;;;;;;2.65;1.42;;;;;;;9.83;94.94;98051.16;7397714;19;20389;-77
2023/10/20 10:37:36;;;;;;;2.60;1.33;;;;;;;9.86;95.58;98040.09;7401050;19;20728;-76
2023/10/20 10:40:18;;;;;;;2.45;1.40;;;;;;;9.96;94.07;98045.56;7396006;19;20902;-76
2023/10/20 10:42:47;;;;;;;3.15;1.50;;;;;;;10.06;93.20;98015.03;7397763;19;20414;-76
2023/10/20 10:45:30;;;;;;;3.10;1.70;;;;;;;10.33;93.23;98026.69;7397184;19;20345;-77
2023/10/20 10:48:08;;;;;;;3.40;1.30;;;;;;;10.33;90.93;98017.94;7398800;19;20369;-76
2023/10/20 10:50:43;;;;;;;2.97;1.30;;;;;;;10.29;92.09;98014.13;7400278;19;20368;-76
2023/10/20 10:53:11;;;;;;;1.98;1.10;;;;;;;10.21;89.84;98005.50;7399240;19;20340;-79
2023/10/20 10:55:39;;;;;;;1.52;1.00;;;;;;;10.04;89.71;98004.69;7399020;19;20449;-80
2023/10/20 10:58:15;;;;;;;2.63;1.10;;;;;;;9.80;90.09;98004.78;7400643;19;20359;-79
2023/10/20 11:00:44;;;;;;;2.22;1.23;;;;;;;9.64;90.48;98000.22;7395678;19;20805;-80
2023/10/20 11:03:15;;;;;;;2.15;1.30;;;;;;;9.51;91.35;97989.91;7397833;19;20375;-81
2023/10/20 11:05:43;;;;;;;2.47;1.58;;;;;;;9.34;92.04;97993.28;7394537;19;20953;-79
2023/10/20 11:08:10;;;;;;;3.15;1.75;;;;;;;9.19;92.40;97992.97;7400292;19;20463;-80
2023/10/20 11:10:45;;;;;;;3.22;1.77;;;;;;;9.11;93.34;97969.50;7393263;19;20438;-79
2023/10/20 11:13:15;;;;;;;2.30;1.30;;;;;;;8.95;93.41;97960.47;7393524;19;20402;-81
2023/10/20 11:15:44;;;;;;;3.22;1.55;;;;;;;8.86;93.96;97967.94;7399807;19;20454;-80
2023/10/20 11:18:11;;;;;;;2.13;1.20;;;;;;;8.76;94.56;97967.72;7399507;19;20353;-80
2023/10/20 11:20:41;;;;;;;1.65;1.10;;;;;;;8.66;95.08;97954.25;7409526;19;20911;-79
2023/10/20 11:23:12;;;;;;;2.20;1.10;;;;;;;8.59;95.66;97964.16;7398651;19;20387;-80
2023/10/20 11:25:42;;;;;;;1.95;1.10;;;;;;;8.55;96.06;97945.28;7397184;19;20356;-80
2023/10/20 11:28:10;;;;;;;2.40;1.20;;;;;;;8.54;96.47;97933.09;7393508;19;20742;-80
2023/10/20 11:30:38;;;;;;;1.75;1.10;;;;;;;8.50;96.78;97916.09;7383345;19;20377;-80
2023/10/20 11:33:06;;;;;;;1.50;0.90;;;;;;;8.53;96.52;97916.47;7387387;19;20378;-80
2023/10/20 11:35:33;;;;;;;1.60;1.00;;;;;;;8.51;96.78;97923.00;7385114;19;20360;-80
2023/10/20 11:38:00;;;;;;;1.50;1.00;;;;;;;8.45;96.81;97923.91;7389830;19;20364;-80
2023/10/20 11:40:27;;;;;;;2.40;1.00;;;;;;;8.46;96.90;97923.69;7390824;19;20357;-79
2023/10/20 11:42:55;;;;;;;1.83;0.90;;;;;;;8.46;96.68;97913.13;7390282;19;20701;-79
2023/10/20 11:45:24;;;;;;;1.75;1.00;;;;;;;8.43;96.62;97897.72;7393593;19;20360;-82
2023/10/20 11:47:51;;;;;;;2.53;2.08;;;;;;;8.45;96.62;97908.88;7394635;19;20706;-82
2023/10/20 11:50:19;;;;;;;2.60;2.00;;;;;;;8.47;96.53;97914.72;7398318;19;20713;-82
2023/10/20 11:52:47;;;;;;;2.90;2.05;;;;;;;8.45;96.67;97913.34;7395391;19;20387;-80
2023/10/20 11:55:14;;;;;;;3.60;2.10;;;;;;;8.43;95.89;97918.06;7395923;19;20372;-80
2023/10/20 11:57:41;;;;;;;3.40;2.60;;;;;;;8.39;96.31;97909.75;7391965;19;20361;-79
2023/10/20 12:00:09;;;;;;;1.80;1.10;;;;;;;8.39;96.24;97893.91;7384793;19;20373;-80